Charlottetown, Canada
Current Conditions -  °F | °C
As of 8:00 PM on Friday 28 Nov 2014 (Local Time) from CYYG Reporting Station
Overcast Overcast  
Wind Chill: 15°   Ceiling: 15000
Heat Index: 25°   Visibility: 15mi
Dew Point: 19°   Wind: 9mph
Humidity: 80%   Direction: 300°WNW
Pressure: 29.95"   Gusts: NA
Location:  46.24°N, 63.13°W
Report Text: CYYG 290000Z 30008KT 15SM FEW040 OVC150 M04/M07 A2995 RMK SC1AS7 SLP143
Loading
Personal Weather Stations






























Interactive Weather Map New forecast layout! Learn more

10-Day Weather Forecast

Advertisements
Track Severe Weather on mobile